sensor_id;sensor_type;location;lat;lon;timestamp;temperature;humidity
65989;HTU21D;53592;51.402;6.054;2023-11-21T00:01:04;9.47;83.10
65989;HTU21D;53592;51.402;6.054;2023-11-21T00:03:31;9.54;82.97
65989;HTU21D;53592;51.402;6.054;2023-11-21T00:05:56;9.63;82.76
65989;HTU21D;53592;51.402;6.054;2023-11-21T00:08:22;9.64;82.75
65989;HTU21D;53592;51.402;6.054;2023-11-21T00:10:48;9.68;82.86
65989;HTU21D;53592;51.402;6.054;2023-11-21T00:13:13;9.72;82.71
65989;HTU21D;53592;51.402;6.054;2023-11-21T00:15:39;9.70;82.62
65989;HTU21D;53592;51.402;6.054;2023-11-21T00:18:06;9.66;82.96
65989;HTU21D;53592;51.402;6.054;2023-11-21T00:20:31;9.67;83.10
65989;HTU21D;53592;51.402;6.054;2023-11-21T00:22:57;9.68;83.29
65989;HTU21D;53592;51.402;6.054;2023-11-21T00:25:22;9.76;83.26
65989;HTU21D;53592;51.402;6.054;2023-11-21T00:27:48;9.81;83.17
65989;HTU21D;53592;51.402;6.054;2023-11-21T00:30:14;9.84;83.00
65989;HTU21D;53592;51.402;6.054;2023-11-21T00:32:40;9.85;82.87
65989;HTU21D;53592;51.402;6.054;2023-11-21T00:35:06;9.82;83.19
65989;HTU21D;53592;51.402;6.054;2023-11-21T00:37:31;9.83;83.30
65989;HTU21D;53592;51.402;6.054;2023-11-21T00:39:57;9.88;83.34
65989;HTU21D;53592;51.402;6.054;2023-11-21T00:42:23;9.93;83.29
65989;HTU21D;53592;51.402;6.054;2023-11-21T00:44:49;9.99;83.20
65989;HTU21D;53592;51.402;6.054;2023-11-21T00:47:14;10.03;83.04
65989;HTU21D;53592;51.402;6.054;2023-11-21T00:49:40;10.06;82.94
65989;HTU21D;53592;51.402;6.054;2023-11-21T00:52:06;10.07;82.90
65989;HTU21D;53592;51.402;6.054;2023-11-21T00:54:32;10.06;82.90
65989;HTU21D;53592;51.402;6.054;2023-11-21T00:56:59;10.04;83.08
65989;HTU21D;53592;51.402;6.054;2023-11-21T00:59:24;9.99;83.29
65989;HTU21D;53592;51.402;6.054;2023-11-21T01:01:50;10.00;83.51
65989;HTU21D;53592;51.402;6.054;2023-11-21T01:04:15;9.99;83.65
65989;HTU21D;53592;51.402;6.054;2023-11-21T01:06:41;9.98;83.79
65989;HTU21D;53592;51.402;6.054;2023-11-21T01:09:06;10.00;83.87
65989;HTU21D;53592;51.402;6.054;2023-11-21T01:11:37;10.00;83.90
65989;HTU21D;53592;51.402;6.054;2023-11-21T01:14:06;10.01;83.99
65989;HTU21D;53592;51.402;6.054;2023-11-21T01:16:34;10.06;84.04
65989;HTU21D;53592;51.402;6.054;2023-11-21T01:18:59;10.11;83.97
65989;HTU21D;53592;51.402;6.054;2023-11-21T01:21:25;10.11;83.97
65989;HTU21D;53592;51.402;6.054;2023-11-21T01:23:51;10.12;84.05
65989;HTU21D;53592;51.402;6.054;2023-11-21T01:26:16;10.09;84.20
65989;HTU21D;53592;51.402;6.054;2023-11-21T01:28:42;10.08;84.39
65989;HTU21D;53592;51.402;6.054;2023-11-21T01:31:07;10.09;84.43
65989;HTU21D;53592;51.402;6.054;2023-11-21T01:33:33;10.09;84.44
65989;HTU21D;53592;51.402;6.054;2023-11-21T01:35:58;10.08;84.60
65989;HTU21D;53592;51.402;6.054;2023-11-21T01:38:25;10.08;84.68
65989;HTU21D;53592;51.402;6.054;2023-11-21T01:40:51;10.08;84.71
65989;HTU21D;53592;51.402;6.054;2023-11-21T01:43:16;10.07;84.87
65989;HTU21D;53592;51.402;6.054;2023-11-21T01:45:42;10.08;84.93
65989;HTU21D;53592;51.402;6.054;2023-11-21T01:48:08;10.08;84.93
65989;HTU21D;53592;51.402;6.054;2023-11-21T01:50:34;10.09;84.87
65989;HTU21D;53592;51.402;6.054;2023-11-21T01:53:00;10.09;84.92
65989;HTU21D;53592;51.402;6.054;2023-11-21T01:55:27;10.11;84.98
65989;HTU21D;53592;51.402;6.054;2023-11-21T01:57:54;10.15;84.81
65989;HTU21D;53592;51.402;6.054;2023-11-21T02:00:20;10.21;84.58
65989;HTU21D;53592;51.402;6.054;2023-11-21T02:02:47;10.24;84.39
65989;HTU21D;53592;51.402;6.054;2023-11-21T02:05:17;10.27;84.19
65989;HTU21D;53592;51.402;6.054;2023-11-21T02:07:47;10.26;84.12
65989;HTU21D;53592;51.402;6.054;2023-11-21T02:10:18;10.23;84.26
65989;HTU21D;53592;51.402;6.054;2023-11-21T02:12:49;10.22;84.48
65989;HTU21D;53592;51.402;6.054;2023-11-21T02:15:18;10.25;84.37
65989;HTU21D;53592;51.402;6.054;2023-11-21T02:20:14;10.26;84.33
65989;HTU21D;53592;51.402;6.054;2023-11-21T02:22:41;10.25;84.38
65989;HTU21D;53592;51.402;6.054;2023-11-21T02:25:10;10.24;84.41
65989;HTU21D;53592;51.402;6.054;2023-11-21T02:27:36;10.24;84.42
65989;HTU21D;53592;51.402;6.054;2023-11-21T02:30:03;10.25;84.42
65989;HTU21D;53592;51.402;6.054;2023-11-21T02:32:30;10.26;84.45
65989;HTU21D;53592;51.402;6.054;2023-11-21T02:34:57;10.24;84.46
65989;HTU21D;53592;51.402;6.054;2023-11-21T02:37:26;10.27;84.44
65989;HTU21D;53592;51.402;6.054;2023-11-21T02:39:52;10.28;84.27
65989;HTU21D;53592;51.402;6.054;2023-11-21T02:42:18;10.28;84.18
65989;HTU21D;53592;51.402;6.054;2023-11-21T02:44:44;10.29;84.10
65989;HTU21D;53592;51.402;6.054;2023-11-21T02:47:09;10.29;84.00
65989;HTU21D;53592;51.402;6.054;2023-11-21T02:49:35;10.27;84.10
65989;HTU21D;53592;51.402;6.054;2023-11-21T02:52:01;10.25;84.13
65989;HTU21D;53592;51.402;6.054;2023-11-21T02:54:27;10.24;84.16
65989;HTU21D;53592;51.402;6.054;2023-11-21T02:56:53;10.20;84.15
65989;HTU21D;53592;51.402;6.054;2023-11-21T02:59:18;10.19;84.18
65989;HTU21D;53592;51.402;6.054;2023-11-21T03:01:45;10.15;84.35
65989;HTU21D;53592;51.402;6.054;2023-11-21T03:04:11;10.12;84.48
65989;HTU21D;53592;51.402;6.054;2023-11-21T03:06:44;10.10;84.64
65989;HTU21D;53592;51.402;6.054;2023-11-21T03:09:10;10.08;84.83
65989;HTU21D;53592;51.402;6.054;2023-11-21T03:11:37;10.08;84.94
65989;HTU21D;53592;51.402;6.054;2023-11-21T03:14:03;10.06;85.02
65989;HTU21D;53592;51.402;6.054;2023-11-21T03:16:28;10.07;85.14
65989;HTU21D;53592;51.402;6.054;2023-11-21T03:18:54;10.07;85.22
65989;HTU21D;53592;51.402;6.054;2023-11-21T03:21:20;10.08;85.22
65989;HTU21D;53592;51.402;6.054;2023-11-21T03:23:45;10.10;85.17
65989;HTU21D;53592;51.402;6.054;2023-11-21T03:26:13;10.09;85.38
65989;HTU21D;53592;51.402;6.054;2023-11-21T03:28:39;10.12;85.44
65989;HTU21D;53592;51.402;6.054;2023-11-21T03:31:05;10.11;85.42
65989;HTU21D;53592;51.402;6.054;2023-11-21T03:33:32;10.13;85.42
65989;HTU21D;53592;51.402;6.054;2023-11-21T03:35:58;10.14;85.42
65989;HTU21D;53592;51.402;6.054;2023-11-21T03:38:23;10.15;85.38
65989;HTU21D;53592;51.402;6.054;2023-11-21T03:40:49;10.19;85.29
65989;HTU21D;53592;51.402;6.054;2023-11-21T03:43:16;10.19;85.22
65989;HTU21D;53592;51.402;6.054;2023-11-21T03:45:41;10.20;85.18
65989;HTU21D;53592;51.402;6.054;2023-11-21T03:48:07;10.18;85.22
65989;HTU21D;53592;51.402;6.054;2023-11-21T03:50:34;10.19;85.21
65989;HTU21D;53592;51.402;6.054;2023-11-21T03:53:00;10.18;85.09
65989;HTU21D;53592;51.402;6.054;2023-11-21T03:55:26;10.16;85.22
65989;HTU21D;53592;51.402;6.054;2023-11-21T03:57:52;10.14;85.29
65989;HTU21D;53592;51.402;6.054;2023-11-21T04:00:18;10.15;85.38
65989;HTU21D;53592;51.402;6.054;2023-11-21T04:02:45;10.15;85.31
65989;HTU21D;53592;51.402;6.054;2023-11-21T04:05:11;10.13;85.35
65989;HTU21D;53592;51.402;6.054;2023-11-21T04:07:37;10.14;85.45
65989;HTU21D;53592;51.402;6.054;2023-11-21T04:10:07;10.13;85.44
65989;HTU21D;53592;51.402;6.054;2023-11-21T04:12:38;10.10;85.55
65989;HTU21D;53592;51.402;6.054;2023-11-21T04:15:03;10.09;85.68
65989;HTU21D;53592;51.402;6.054;2023-11-21T04:17:29;10.07;85.81
65989;HTU21D;53592;51.402;6.054;2023-11-21T04:19:55;10.07;85.90
65989;HTU21D;53592;51.402;6.054;2023-11-21T04:22:20;10.08;85.91
65989;HTU21D;53592;51.402;6.054;2023-11-21T04:24:46;10.11;85.85
65989;HTU21D;53592;51.402;6.054;2023-11-21T04:27:11;10.10;85.77
65989;HTU21D;53592;51.402;6.054;2023-11-21T04:29:38;10.11;85.86
65989;HTU21D;53592;51.402;6.054;2023-11-21T04:32:04;10.10;85.87
65989;HTU21D;53592;51.402;6.054;2023-11-21T04:34:30;10.09;85.87
65989;HTU21D;53592;51.402;6.054;2023-11-21T04:37:00;10.10;85.80
65989;HTU21D;53592;51.402;6.054;2023-11-21T04:39:25;10.07;85.81
65989;HTU21D;53592;51.402;6.054;2023-11-21T04:41:51;10.08;85.79
65989;HTU21D;53592;51.402;6.054;2023-11-21T04:44:17;10.04;85.85
65989;HTU21D;53592;51.402;6.054;2023-11-21T04:46:42;10.03;85.92
65989;HTU21D;53592;51.402;6.054;2023-11-21T04:49:08;9.98;85.95
65989;HTU21D;53592;51.402;6.054;2023-11-21T04:51:34;9.96;86.08
65989;HTU21D;53592;51.402;6.054;2023-11-21T04:53:59;9.97;86.21
65989;HTU21D;53592;51.402;6.054;2023-11-21T04:56:25;9.97;86.25
65989;HTU21D;53592;51.402;6.054;2023-11-21T04:58:50;9.98;86.26
65989;HTU21D;53592;51.402;6.054;2023-11-21T05:01:16;10.01;86.12
65989;HTU21D;53592;51.402;6.054;2023-11-21T05:03:41;10.01;86.03
65989;HTU21D;53592;51.402;6.054;2023-11-21T05:06:09;10.03;86.01
65989;HTU21D;53592;51.402;6.054;2023-11-21T05:08:35;10.05;85.92
65989;HTU21D;53592;51.402;6.054;2023-11-21T05:11:03;10.07;85.77
65989;HTU21D;53592;51.402;6.054;2023-11-21T05:13:29;10.07;85.69
65989;HTU21D;53592;51.402;6.054;2023-11-21T05:15:55;10.07;85.66
65989;HTU21D;53592;51.402;6.054;2023-11-21T05:18:22;10.06;85.64
65989;HTU21D;53592;51.402;6.054;2023-11-21T05:20:48;10.03;85.61
65989;HTU21D;53592;51.402;6.054;2023-11-21T05:23:14;9.99;85.68
65989;HTU21D;53592;51.402;6.054;2023-11-21T05:25:39;9.98;85.75
65989;HTU21D;53592;51.402;6.054;2023-11-21T05:28:06;9.96;85.76
65989;HTU21D;53592;51.402;6.054;2023-11-21T05:30:32;9.96;85.81
65989;HTU21D;53592;51.402;6.054;2023-11-21T05:32:57;9.95;85.67
65989;HTU21D;53592;51.402;6.054;2023-11-21T05:35:23;9.91;85.75
65989;HTU21D;53592;51.402;6.054;2023-11-21T05:37:48;9.92;85.86
65989;HTU21D;53592;51.402;6.054;2023-11-21T05:40:14;9.91;85.84
65989;HTU21D;53592;51.402;6.054;2023-11-21T05:42:40;9.91;85.82
65989;HTU21D;53592;51.402;6.054;2023-11-21T05:45:09;9.91;85.84
65989;HTU21D;53592;51.402;6.054;2023-11-21T05:47:40;9.90;85.80
65989;HTU21D;53592;51.402;6.054;2023-11-21T05:50:08;9.89;85.85
65989;HTU21D;53592;51.402;6.054;2023-11-21T05:52:36;9.90;85.92
65989;HTU21D;53592;51.402;6.054;2023-11-21T05:55:03;9.91;85.87
65989;HTU21D;53592;51.402;6.054;2023-11-21T05:57:36;9.88;85.83
65989;HTU21D;53592;51.402;6.054;2023-11-21T06:00:05;9.83;85.76
65989;HTU21D;53592;51.402;6.054;2023-11-21T06:02:39;9.83;85.93
65989;HTU21D;53592;51.402;6.054;2023-11-21T06:05:09;9.83;86.03
65989;HTU21D;53592;51.402;6.054;2023-11-21T06:07:35;9.85;85.97
65989;HTU21D;53592;51.402;6.054;2023-11-21T06:10:06;9.86;85.97
65989;HTU21D;53592;51.402;6.054;2023-11-21T06:12:50;9.86;85.85
65989;HTU21D;53592;51.402;6.054;2023-11-21T06:15:19;9.89;85.84
65989;HTU21D;53592;51.402;6.054;2023-11-21T06:17:46;9.84;85.61
65989;HTU21D;53592;51.402;6.054;2023-11-21T06:20:15;9.76;85.74
65989;HTU21D;53592;51.402;6.054;2023-11-21T06:23:10;9.74;85.96
65989;HTU21D;53592;51.402;6.054;2023-11-21T06:25:35;9.75;86.29
65989;HTU21D;53592;51.402;6.054;2023-11-21T06:28:04;9.82;86.29
65989;HTU21D;53592;51.402;6.054;2023-11-21T06:30:33;9.86;86.09
65989;HTU21D;53592;51.402;6.054;2023-11-21T06:32:58;9.89;85.97
65989;HTU21D;53592;51.402;6.054;2023-11-21T06:35:24;9.92;85.83
65989;HTU21D;53592;51.402;6.054;2023-11-21T06:37:50;9.90;85.71
65989;HTU21D;53592;51.402;6.054;2023-11-21T06:40:17;9.88;85.65
65989;HTU21D;53592;51.402;6.054;2023-11-21T06:42:49;9.83;85.75
65989;HTU21D;53592;51.402;6.054;2023-11-21T06:45:19;9.84;85.83
65989;HTU21D;53592;51.402;6.054;2023-11-21T06:47:45;9.82;85.66
65989;HTU21D;53592;51.402;6.054;2023-11-21T06:50:11;9.79;85.71
65989;HTU21D;53592;51.402;6.054;2023-11-21T06:52:37;9.72;85.71
65989;HTU21D;53592;51.402;6.054;2023-11-21T06:55:03;9.68;85.80
65989;HTU21D;53592;51.402;6.054;2023-11-21T06:57:28;9.64;86.00
65989;HTU21D;53592;51.402;6.054;2023-11-21T06:59:54;9.62;86.22
65989;HTU21D;53592;51.402;6.054;2023-11-21T07:02:19;9.61;86.26
65989;HTU21D;53592;51.402;6.054;2023-11-21T07:04:45;9.61;86.41
65989;HTU21D;53592;51.402;6.054;2023-11-21T07:07:12;9.66;86.57
65989;HTU21D;53592;51.402;6.054;2023-11-21T07:09:38;9.71;86.37
65989;HTU21D;53592;51.402;6.054;2023-11-21T07:12:04;9.74;86.12
65989;HTU21D;53592;51.402;6.054;2023-11-21T07:14:33;9.70;86.11
65989;HTU21D;53592;51.402;6.054;2023-11-21T07:16:59;9.72;86.26
65989;HTU21D;53592;51.402;6.054;2023-11-21T07:19:24;9.68;86.09
65989;HTU21D;53592;51.402;6.054;2023-11-21T07:21:50;9.68;86.29
65989;HTU21D;53592;51.402;6.054;2023-11-21T07:24:16;9.67;86.24
65989;HTU21D;53592;51.402;6.054;2023-11-21T07:26:42;9.63;86.40
65989;HTU21D;53592;51.402;6.054;2023-11-21T07:29:08;9.63;86.52
65989;HTU21D;53592;51.402;6.054;2023-11-21T07:31:34;9.62;86.54
65989;HTU21D;53592;51.402;6.054;2023-11-21T07:34:00;9.60;86.59
65989;HTU21D;53592;51.402;6.054;2023-11-21T07:36:26;9.60;86.75
65989;HTU21D;53592;51.402;6.054;2023-11-21T07:38:52;9.62;86.83
65989;HTU21D;53592;51.402;6.054;2023-11-21T07:41:18;9.63;86.87
65989;HTU21D;53592;51.402;6.054;2023-11-21T07:43:45;9.64;86.99
65989;HTU21D;53592;51.402;6.054;2023-11-21T07:46:11;9.67;87.06
65989;HTU21D;53592;51.402;6.054;2023-11-21T07:48:41;9.70;87.05
65989;HTU21D;53592;51.402;6.054;2023-11-21T07:51:08;9.72;87.04
65989;HTU21D;53592;51.402;6.054;2023-11-21T07:53:35;9.76;86.96
65989;HTU21D;53592;51.402;6.054;2023-11-21T07:56:08;9.77;86.87
65989;HTU21D;53592;51.402;6.054;2023-11-21T07:58:34;9.79;86.75
65989;HTU21D;53592;51.402;6.054;2023-11-21T08:01:01;9.80;86.68
65989;HTU21D;53592;51.402;6.054;2023-11-21T08:03:29;9.83;86.52
65989;HTU21D;53592;51.402;6.054;2023-11-21T08:05:56;9.86;86.55
65989;HTU21D;53592;51.402;6.054;2023-11-21T08:08:23;9.86;86.47
65989;HTU21D;53592;51.402;6.054;2023-11-21T08:10:49;9.89;86.49
65989;HTU21D;53592;51.402;6.054;2023-11-21T08:13:25;9.91;86.46
65989;HTU21D;53592;51.402;6.054;2023-11-21T08:15:54;9.92;86.45
65989;HTU21D;53592;51.402;6.054;2023-11-21T08:18:20;9.95;86.38
65989;HTU21D;53592;51.402;6.054;2023-11-21T08:20:45;9.95;86.35
65989;HTU21D;53592;51.402;6.054;2023-11-21T08:23:17;9.99;86.34
65989;HTU21D;53592;51.402;6.054;2023-11-21T08:25:44;9.99;86.22
65989;HTU21D;53592;51.402;6.054;2023-11-21T08:28:09;9.97;86.41
65989;HTU21D;53592;51.402;6.054;2023-11-21T08:30:35;9.99;86.51
65989;HTU21D;53592;51.402;6.054;2023-11-21T08:33:01;10.01;86.51
65989;HTU21D;53592;51.402;6.054;2023-11-21T08:35:28;10.04;86.54
65989;HTU21D;53592;51.402;6.054;2023-11-21T08:37:54;10.01;86.54
65989;HTU21D;53592;51.402;6.054;2023-11-21T08:40:20;10.04;86.60
65989;HTU21D;53592;51.402;6.054;2023-11-21T08:42:47;10.04;86.56
65989;HTU21D;53592;51.402;6.054;2023-11-21T08:45:14;10.05;86.74
65989;HTU21D;53592;51.402;6.054;2023-11-21T08:47:40;10.06;86.73
65989;HTU21D;53592;51.402;6.054;2023-11-21T08:50:08;10.07;86.87
65989;HTU21D;53592;51.402;6.054;2023-11-21T08:52:34;10.10;86.99
65989;HTU21D;53592;51.402;6.054;2023-11-21T08:55:00;10.12;87.07
65989;HTU21D;53592;51.402;6.054;2023-11-21T08:57:34;10.15;87.05
65989;HTU21D;53592;51.402;6.054;2023-11-21T09:00:00;10.19;87.05
65989;HTU21D;53592;51.402;6.054;2023-11-21T09:02:26;10.20;86.95
65989;HTU21D;53592;51.402;6.054;2023-11-21T09:04:52;10.22;87.05
65989;HTU21D;53592;51.402;6.054;2023-11-21T09:07:18;10.28;87.01
65989;HTU21D;53592;51.402;6.054;2023-11-21T09:09:48;10.27;86.94
65989;HTU21D;53592;51.402;6.054;2023-11-21T09:12:15;10.29;86.87
65989;HTU21D;53592;51.402;6.054;2023-11-21T09:14:42;10.30;86.88
65989;HTU21D;53592;51.402;6.054;2023-11-21T09:17:09;10.33;86.88
65989;HTU21D;53592;51.402;6.054;2023-11-21T09:19:38;10.38;86.83
65989;HTU21D;53592;51.402;6.054;2023-11-21T09:22:04;10.41;86.70
65989;HTU21D;53592;51.402;6.054;2023-11-21T09:24:31;10.44;86.62
65989;HTU21D;53592;51.402;6.054;2023-11-21T09:26:57;10.49;86.51
65989;HTU21D;53592;51.402;6.054;2023-11-21T09:29:22;10.50;86.32
65989;HTU21D;53592;51.402;6.054;2023-11-21T09:31:48;10.49;86.38
65989;HTU21D;53592;51.402;6.054;2023-11-21T09:34:15;10.53;86.41
65989;HTU21D;53592;51.402;6.054;2023-11-21T09:36:40;10.53;86.50
65989;HTU21D;53592;51.402;6.054;2023-11-21T09:39:06;10.55;86.55
65989;HTU21D;53592;51.402;6.054;2023-11-21T09:41:46;10.58;86.61
65989;HTU21D;53592;51.402;6.054;2023-11-21T09:44:18;10.60;86.62
65989;HTU21D;53592;51.402;6.054;2023-11-21T09:46:48;10.66;86.58
65989;HTU21D;53592;51.402;6.054;2023-11-21T09:49:18;10.68;86.53
65989;HTU21D;53592;51.402;6.054;2023-11-21T09:51:47;10.69;86.55
65989;HTU21D;53592;51.402;6.054;2023-11-21T09:54:15;10.73;86.54
65989;HTU21D;53592;51.402;6.054;2023-11-21T09:56:42;10.74;86.66
65989;HTU21D;53592;51.402;6.054;2023-11-21T09:59:14;10.80;86.65
65989;HTU21D;53592;51.402;6.054;2023-11-21T10:01:41;10.86;86.65
65989;HTU21D;53592;51.402;6.054;2023-11-21T10:04:08;10.93;86.57
65989;HTU21D;53592;51.402;6.054;2023-11-21T10:06:41;10.96;86.39
65989;HTU21D;53592;51.402;6.054;2023-11-21T10:09:12;11.00;86.40
65989;HTU21D;53592;51.402;6.054;2023-11-21T10:11:42;11.04;86.27
65989;HTU21D;53592;51.402;6.054;2023-11-21T10:14:12;11.07;86.22
65989;HTU21D;53592;51.402;6.054;2023-11-21T10:16:41;11.07;86.20
65989;HTU21D;53592;51.402;6.054;2023-11-21T10:19:10;11.10;86.19
65989;HTU21D;53592;51.402;6.054;2023-11-21T10:21:36;11.12;86.23
65989;HTU21D;53592;51.402;6.054;2023-11-21T10:24:03;11.11;86.25
65989;HTU21D;53592;51.402;6.054;2023-11-21T10:26:28;11.13;86.41
65989;HTU21D;53592;51.402;6.054;2023-11-21T10:29:01;11.16;86.52
65989;HTU21D;53592;51.402;6.054;2023-11-21T10:31:31;11.27;86.36
65989;HTU21D;53592;51.402;6.054;2023-11-21T10:34:16;11.30;86.12
65989;HTU21D;53592;51.402;6.054;2023-11-21T10:36:44;11.32;86.03
65989;HTU21D;53592;51.402;6.054;2023-11-21T10:39:14;11.37;85.93
65989;HTU21D;53592;51.402;6.054;2023-11-21T10:41:47;11.37;85.85
65989;HTU21D;53592;51.402;6.054;2023-11-21T10:44:17;11.38;85.87
65989;HTU21D;53592;51.402;6.054;2023-11-21T10:46:51;11.42;85.82
65989;HTU21D;53592;51.402;6.054;2023-11-21T10:49:21;11.46;85.67
65989;HTU21D;53592;51.402;6.054;2023-11-21T10:51:46;11.51;85.63
65989;HTU21D;53592;51.402;6.054;2023-11-21T10:54:20;11.53;85.35
65989;HTU21D;53592;51.402;6.054;2023-11-21T10:56:49;11.56;85.51
65989;HTU21D;53592;51.402;6.054;2023-11-21T10:59:17;11.60;85.43
65989;HTU21D;53592;51.402;6.054;2023-11-21T11:01:45;11.63;85.40
65989;HTU21D;53592;51.402;6.054;2023-11-21T11:04:14;11.71;85.30
65989;HTU21D;53592;51.402;6.054;2023-11-21T11:07:02;11.78;84.86
65989;HTU21D;53592;51.402;6.054;2023-11-21T11:09:31;11.78;84.74
65989;HTU21D;53592;51.402;6.054;2023-11-21T11:12:02;11.81;84.84
65989;HTU21D;53592;51.402;6.054;2023-11-21T11:14:29;11.82;84.90
65989;HTU21D;53592;51.402;6.054;2023-11-21T11:16:55;11.84;84.90
65989;HTU21D;53592;51.402;6.054;2023-11-21T11:19:21;11.85;84.83
65989;HTU21D;53592;51.402;6.054;2023-11-21T11:27:37;11.85;85.17
65989;HTU21D;53592;51.402;6.054;2023-11-21T11:32:58;11.92;85.24
65989;HTU21D;53592;51.402;6.054;2023-11-21T11:35:56;11.96;85.26
65989;HTU21D;53592;51.402;6.054;2023-11-21T11:38:27;12.01;85.29
65989;HTU21D;53592;51.402;6.054;2023-11-21T11:40:56;12.06;85.28
65989;HTU21D;53592;51.402;6.054;2023-11-21T11:43:26;12.10;85.19
65989;HTU21D;53592;51.402;6.054;2023-11-21T11:45:55;12.13;84.99
65989;HTU21D;53592;51.402;6.054;2023-11-21T11:48:22;12.12;84.78
65989;HTU21D;53592;51.402;6.054;2023-11-21T11:51:02;12.12;84.47
65989;HTU21D;53592;51.402;6.054;2023-11-21T11:54:00;12.04;84.83
65989;HTU21D;53592;51.402;6.054;2023-11-21T11:56:30;12.06;84.87
65989;HTU21D;53592;51.402;6.054;2023-11-21T11:59:02;12.04;84.99
65989;HTU21D;53592;51.402;6.054;2023-11-21T12:01:29;12.07;84.98
65989;HTU21D;53592;51.402;6.054;2023-11-21T12:06:41;12.06;84.81
65989;HTU21D;53592;51.402;6.054;2023-11-21T12:09:21;12.08;84.94
65989;HTU21D;53592;51.402;6.054;2023-11-21T12:11:50;12.11;84.77
65989;HTU21D;53592;51.402;6.054;2023-11-21T12:14:16;12.11;84.55
65989;HTU21D;53592;51.402;6.054;2023-11-21T12:16:43;12.05;84.66
65989;HTU21D;53592;51.402;6.054;2023-11-21T12:19:10;12.02;84.76
65989;HTU21D;53592;51.402;6.054;2023-11-21T12:21:36;11.94;84.93
65989;HTU21D;53592;51.402;6.054;2023-11-21T12:24:03;11.93;85.29
65989;HTU21D;53592;51.402;6.054;2023-11-21T12:26:28;11.93;85.35
65989;HTU21D;53592;51.402;6.054;2023-11-21T12:28:54;11.92;85.36
65989;HTU21D;53592;51.402;6.054;2023-11-21T12:31:23;11.92;85.33
65989;HTU21D;53592;51.402;6.054;2023-11-21T12:33:48;11.90;85.43
65989;HTU21D;53592;51.402;6.054;2023-11-21T12:36:14;11.93;85.58
65989;HTU21D;53592;51.402;6.054;2023-11-21T12:38:40;11.98;85.77
65989;HTU21D;53592;51.402;6.054;2023-11-21T12:41:07;12.04;85.72
65989;HTU21D;53592;51.402;6.054;2023-11-21T12:43:33;12.10;85.57
65989;HTU21D;53592;51.402;6.054;2023-11-21T12:46:13;12.10;85.05
65989;HTU21D;53592;51.402;6.054;2023-11-21T12:48:44;12.05;85.30
65989;HTU21D;53592;51.402;6.054;2023-11-21T12:51:12;12.08;85.34
65989;HTU21D;53592;51.402;6.054;2023-11-21T12:53:40;12.13;85.20
65989;HTU21D;53592;51.402;6.054;2023-11-21T12:56:15;12.18;85.08
65989;HTU21D;53592;51.402;6.054;2023-11-21T12:58:45;12.21;84.80
65989;HTU21D;53592;51.402;6.054;2023-11-21T13:01:13;12.18;84.40
65989;HTU21D;53592;51.402;6.054;2023-11-21T13:03:43;12.14;84.53
65989;HTU21D;53592;51.402;6.054;2023-11-21T13:06:11;12.05;84.79
65989;HTU21D;53592;51.402;6.054;2023-11-21T13:08:37;12.04;85.00
65989;HTU21D;53592;51.402;6.054;2023-11-21T13:11:04;12.04;85.00
65989;HTU21D;53592;51.402;6.054;2023-11-21T13:13:31;12.01;84.96
65989;HTU21D;53592;51.402;6.054;2023-11-21T13:16:02;12.00;84.88
65989;HTU21D;53592;51.402;6.054;2023-11-21T13:18:31;11.93;85.00
65989;HTU21D;53592;51.402;6.054;2023-11-21T13:21:02;11.94;85.13
65989;HTU21D;53592;51.402;6.054;2023-11-21T13:23:48;11.94;84.89
65989;HTU21D;53592;51.402;6.054;2023-11-21T13:26:16;11.86;85.06
65989;HTU21D;53592;51.402;6.054;2023-11-21T13:28:41;11.85;85.42
65989;HTU21D;53592;51.402;6.054;2023-11-21T13:31:11;11.87;85.59
65989;HTU21D;53592;51.402;6.054;2023-11-21T13:33:48;11.94;85.51
65989;HTU21D;53592;51.402;6.054;2023-11-21T13:36:22;11.92;85.45
65989;HTU21D;53592;51.402;6.054;2023-11-21T13:38:49;11.94;85.45
65989;HTU21D;53592;51.402;6.054;2023-11-21T13:41:15;11.96;85.49
65989;HTU21D;53592;51.402;6.054;2023-11-21T13:43:42;11.97;85.50
65989;HTU21D;53592;51.402;6.054;2023-11-21T13:46:13;12.01;85.53
65989;HTU21D;53592;51.402;6.054;2023-11-21T13:48:42;12.04;85.38
65989;HTU21D;53592;51.402;6.054;2023-11-21T13:51:11;12.07;85.32
65989;HTU21D;53592;51.402;6.054;2023-11-21T13:53:50;12.10;85.19
65989;HTU21D;53592;51.402;6.054;2023-11-21T13:56:18;12.08;85.10
65989;HTU21D;53592;51.402;6.054;2023-11-21T13:58:49;12.10;85.08
65989;HTU21D;53592;51.402;6.054;2023-11-21T14:01:20;12.08;85.19
65989;HTU21D;53592;51.402;6.054;2023-11-21T14:04:09;12.11;85.16
65989;HTU21D;53592;51.402;6.054;2023-11-21T14:06:40;12.13;84.99
65989;HTU21D;53592;51.402;6.054;2023-11-21T14:09:14;12.08;84.93
65989;HTU21D;53592;51.402;6.054;2023-11-21T14:11:49;12.05;85.08
65989;HTU21D;53592;51.402;6.054;2023-11-21T14:14:15;12.05;85.13
65989;HTU21D;53592;51.402;6.054;2023-11-21T14:16:41;12.04;85.13
65989;HTU21D;53592;51.402;6.054;2023-11-21T14:19:07;11.99;85.11
65989;HTU21D;53592;51.402;6.054;2023-11-21T14:21:41;11.98;85.22
65989;HTU21D;53592;51.402;6.054;2023-11-21T14:24:11;11.94;85.35
65989;HTU21D;53592;51.402;6.054;2023-11-21T14:26:45;11.96;85.46
65989;HTU21D;53592;51.402;6.054;2023-11-21T14:29:12;11.97;85.49
65989;HTU21D;53592;51.402;6.054;2023-11-21T14:31:43;11.94;85.55
65989;HTU21D;53592;51.402;6.054;2023-11-21T14:34:09;11.94;85.56
65989;HTU21D;53592;51.402;6.054;2023-11-21T14:36:35;11.97;85.51
65989;HTU21D;53592;51.402;6.054;2023-11-21T14:39:03;11.93;85.47
65989;HTU21D;53592;51.402;6.054;2023-11-21T14:41:32;11.90;85.77
65989;HTU21D;53592;51.402;6.054;2023-11-21T14:44:01;11.93;85.82
65989;HTU21D;53592;51.402;6.054;2023-11-21T14:46:29;11.92;85.75
65989;HTU21D;53592;51.402;6.054;2023-11-21T14:48:54;11.94;85.84
65989;HTU21D;53592;51.402;6.054;2023-11-21T14:51:47;11.97;85.87
65989;HTU21D;53592;51.402;6.054;2023-11-21T14:54:36;11.99;85.84
65989;HTU21D;53592;51.402;6.054;2023-11-21T14:57:13;12.01;85.77
65989;HTU21D;53592;51.402;6.054;2023-11-21T14:59:45;12.02;85.71
65989;HTU21D;53592;51.402;6.054;2023-11-21T15:02:17;12.03;85.60
65989;HTU21D;53592;51.402;6.054;2023-11-21T15:04:48;12.06;85.49
65989;HTU21D;53592;51.402;6.054;2023-11-21T15:07:17;12.03;85.27
65989;HTU21D;53592;51.402;6.054;2023-11-21T15:09:42;11.97;85.46
65989;HTU21D;53592;51.402;6.054;2023-11-21T15:12:10;11.87;85.47
65989;HTU21D;53592;51.402;6.054;2023-11-21T15:14:46;11.81;85.76
65989;HTU21D;53592;51.402;6.054;2023-11-21T15:17:15;11.72;86.02
65989;HTU21D;53592;51.402;6.054;2023-11-21T15:19:48;11.66;86.26
65989;HTU21D;53592;51.402;6.054;2023-11-21T15:22:13;11.62;86.38
65989;HTU21D;53592;51.402;6.054;2023-11-21T15:24:42;11.63;86.58
65989;HTU21D;53592;51.402;6.054;2023-11-21T15:27:09;11.61;86.22
65989;HTU21D;53592;51.402;6.054;2023-11-21T15:29:36;11.58;86.38
65989;HTU21D;53592;51.402;6.054;2023-11-21T15:32:02;11.56;86.34
65989;HTU21D;53592;51.402;6.054;2023-11-21T15:34:27;11.51;86.43
65989;HTU21D;53592;51.402;6.054;2023-11-21T15:36:55;11.45;86.64
65989;HTU21D;53592;51.402;6.054;2023-11-21T15:39:20;11.45;86.66